createdAt,value
2022-12-28T00:01:44.274Z,3.40
2022-12-28T00:04:15.156Z,3.50
2022-12-28T00:06:42.321Z,3.50
2022-12-28T00:09:12.171Z,3.60
2022-12-28T00:11:39.407Z,3.70
2022-12-28T00:14:06.643Z,3.70
2022-12-28T00:16:36.430Z,3.70
2022-12-28T00:19:11.616Z,3.80
2022-12-28T00:21:39.101Z,3.90
2022-12-28T00:24:06.653Z,4.10
2022-12-28T00:26:35.561Z,4.30
2022-12-28T00:29:05.760Z,4.00
2022-12-28T00:31:34.492Z,3.90
2022-12-28T00:34:02.368Z,4.00
2022-12-28T00:37:08.885Z,4.30
2022-12-28T00:39:16.988Z,4.40
2022-12-28T00:41:44.109Z,4.50
2022-12-28T00:44:11.342Z,4.50
2022-12-28T00:46:38.449Z,4.50
2022-12-28T00:49:05.610Z,4.50
2022-12-28T00:51:33.748Z,4.60
2022-12-28T00:54:00.984Z,4.60
2022-12-28T00:56:28.232Z,4.60
2022-12-28T00:58:59.782Z,4.60
2022-12-28T01:01:28.328Z,4.60
2022-12-28T01:03:58.889Z,4.70
2022-12-28T01:06:27.468Z,4.70
2022-12-28T01:08:54.643Z,4.60
2022-12-28T01:11:28.216Z,4.70
2022-12-28T01:13:57.738Z,4.70
2022-12-28T01:16:30.142Z,4.70
2022-12-28T01:19:00.214Z,4.80
2022-12-28T01:21:30.135Z,4.80
2022-12-28T01:23:59.436Z,4.80
2022-12-28T01:26:26.945Z,4.80
2022-12-28T01:28:56.524Z,4.90
2022-12-28T01:31:23.717Z,5.00
2022-12-28T01:33:51.384Z,4.90
2022-12-28T01:36:26.819Z,4.90
2022-12-28T01:38:56.867Z,4.90
2022-12-28T01:41:25.710Z,4.90
2022-12-28T01:44:21.660Z,5.00
2022-12-28T01:47:15.593Z,5.00
2022-12-28T01:49:55.317Z,5.00
2022-12-28T01:52:40.290Z,5.00
2022-12-28T01:55:15.735Z,5.00
2022-12-28T01:57:54.566Z,5.00
2022-12-28T02:00:22.468Z,5.00
2022-12-28T02:03:00.899Z,4.90
2022-12-28T02:05:35.973Z,4.90
2022-12-28T02:08:15.223Z,4.90
2022-12-28T02:10:45.967Z,4.90
2022-12-28T02:13:17.212Z,4.90
2022-12-28T02:15:45.686Z,4.80
2022-12-28T02:18:14.828Z,4.70
2022-12-28T02:21:08.794Z,4.70
2022-12-28T02:24:27.207Z,4.70
2022-12-28T02:27:18.680Z,4.70
2022-12-28T02:33:18.674Z,4.70
2022-12-28T02:35:55.539Z,4.70
2022-12-28T02:38:28.528Z,4.70
2022-12-28T02:41:10.969Z,4.60
2022-12-28T02:43:39.324Z,4.70
2022-12-28T02:46:48.835Z,4.60
2022-12-28T02:50:00.751Z,4.50
2022-12-28T02:53:17.401Z,4.50
2022-12-28T02:56:14.669Z,4.50
2022-12-28T02:59:24.101Z,4.40
2022-12-28T03:02:27.466Z,4.40
2022-12-28T03:05:42.617Z,4.30
2022-12-28T03:08:20.009Z,4.30
2022-12-28T03:11:15.663Z,4.40
2022-12-28T03:14:10.891Z,4.40
2022-12-28T03:17:00.348Z,4.40
2022-12-28T03:20:01.547Z,4.40
2022-12-28T03:22:52.235Z,4.40
2022-12-28T03:25:42.745Z,4.50
2022-12-28T03:28:34.754Z,4.50
2022-12-28T03:31:10.272Z,4.40
2022-12-28T03:33:49.406Z,4.40
2022-12-28T03:36:37.540Z,4.40
2022-12-28T03:39:29.334Z,4.40
2022-12-28T03:42:37.858Z,4.50
2022-12-28T03:45:49.994Z,4.50
2022-12-28T03:48:20.722Z,4.40
2022-12-28T03:50:49.799Z,4.50
2022-12-28T03:53:23.338Z,4.40
2022-12-28T03:56:12.320Z,4.40
2022-12-28T03:58:40.812Z,4.40
2022-12-28T04:01:09.134Z,4.30
2022-12-28T04:03:38.822Z,4.30
2022-12-28T04:06:07.598Z,4.20
2022-12-28T04:08:34.895Z,4.10
2022-12-28T04:11:03.400Z,4.10
2022-12-28T04:13:34.030Z,4.00
2022-12-28T04:16:11.148Z,4.00
2022-12-28T04:18:40.065Z,4.00
2022-12-28T04:21:07.834Z,4.00
2022-12-28T04:23:35.441Z,4.10
2022-12-28T04:26:21.613Z,4.10
2022-12-28T04:28:51.900Z,3.90
2022-12-28T04:31:57.787Z,4.00
2022-12-28T04:34:25.947Z,4.10
2022-12-28T04:37:03.053Z,3.90
2022-12-28T04:39:56.360Z,3.80
2022-12-28T04:42:17.352Z,4.00
2022-12-28T04:44:44.504Z,4.00
2022-12-28T04:47:11.576Z,4.00
2022-12-28T04:49:38.688Z,4.00
2022-12-28T04:52:05.829Z,4.00
2022-12-28T04:54:32.926Z,4.10
2022-12-28T04:57:00.072Z,4.00
2022-12-28T04:59:27.176Z,4.20
2022-12-28T05:01:54.477Z,4.20
2022-12-28T05:04:21.699Z,4.20
2022-12-28T05:06:48.767Z,4.10
2022-12-28T05:09:15.837Z,4.20
2022-12-28T05:11:42.966Z,4.30
2022-12-28T05:14:10.019Z,4.20
2022-12-28T05:16:37.181Z,4.10
2022-12-28T05:19:04.377Z,4.10
2022-12-28T05:21:31.487Z,4.10
2022-12-28T05:23:58.685Z,4.00
2022-12-28T05:26:29.214Z,4.10
2022-12-28T05:28:57.402Z,4.10
2022-12-28T05:31:25.108Z,4.20
2022-12-28T05:33:52.496Z,4.10
2022-12-28T05:36:22.513Z,4.20
2022-12-28T05:38:50.117Z,4.20
2022-12-28T05:41:22.850Z,4.10
2022-12-28T05:43:50.350Z,4.10
2022-12-28T05:46:24.796Z,4.10
2022-12-28T05:48:52.568Z,4.20
2022-12-28T05:51:21.667Z,4.20
2022-12-28T05:53:49.335Z,4.10
2022-12-28T05:56:21.882Z,4.10
2022-12-28T05:59:00.508Z,4.20
2022-12-28T06:01:30.705Z,4.30
2022-12-28T06:04:00.588Z,4.30
2022-12-28T06:06:28.258Z,4.30
2022-12-28T06:08:55.705Z,4.40
2022-12-28T06:11:25.724Z,4.30
2022-12-28T06:13:53.394Z,4.40
2022-12-28T06:16:24.682Z,4.40
2022-12-28T06:18:52.622Z,4.40
2022-12-28T06:21:22.526Z,4.50
2022-12-28T06:23:50.275Z,4.40
2022-12-28T06:26:19.717Z,4.40
2022-12-28T06:28:47.493Z,4.50
2022-12-28T06:31:17.630Z,4.60
2022-12-28T06:33:45.212Z,4.50
2022-12-28T06:36:21.499Z,4.50
2022-12-28T06:38:50.240Z,4.60
2022-12-28T06:41:19.299Z,4.60
2022-12-28T06:43:47.427Z,4.60
2022-12-28T06:46:15.870Z,4.50
2022-12-28T06:48:43.488Z,4.50
2022-12-28T06:51:22.123Z,4.40
2022-12-28T06:53:50.373Z,4.50
2022-12-28T06:56:20.816Z,4.40
2022-12-28T06:58:49.459Z,4.40
2022-12-28T07:01:27.914Z,4.50
2022-12-28T07:03:56.985Z,4.40
2022-12-28T07:06:26.457Z,4.50
2022-12-28T07:08:59.718Z,4.50
2022-12-28T07:11:27.735Z,4.50
2022-12-28T07:13:56.049Z,4.50
2022-12-28T07:16:25.468Z,4.50
2022-12-28T07:18:52.633Z,4.50
2022-12-28T07:21:24.713Z,4.60
2022-12-28T07:23:53.519Z,4.60
2022-12-28T07:26:23.350Z,4.60
2022-12-28T07:28:53.505Z,4.60
2022-12-28T07:31:26.017Z,4.70
2022-12-28T07:33:55.558Z,4.60
2022-12-28T07:36:23.821Z,4.60
2022-12-28T07:38:51.475Z,4.70
2022-12-28T07:41:21.957Z,4.70
2022-12-28T07:43:49.792Z,4.70
2022-12-28T07:46:19.754Z,4.80
2022-12-28T07:48:47.570Z,4.80
2022-12-28T07:51:22.778Z,4.80
2022-12-28T07:53:51.962Z,4.80
2022-12-28T07:56:21.075Z,4.80
2022-12-28T07:59:01.821Z,4.80
2022-12-28T08:01:32.509Z,4.80
2022-12-28T08:04:06.399Z,4.80
2022-12-28T08:06:36.425Z,4.80
2022-12-28T08:09:05.006Z,4.90
2022-12-28T08:11:34.191Z,4.90
2022-12-28T08:14:01.884Z,4.90
2022-12-28T08:16:33.386Z,4.90
2022-12-28T08:19:01.016Z,4.80
2022-12-28T08:21:31.333Z,4.80
2022-12-28T08:23:59.737Z,4.80
2022-12-28T08:26:35.204Z,4.80
2022-12-28T08:29:05.836Z,5.00
2022-12-28T08:31:36.371Z,5.10
2022-12-28T08:34:06.060Z,5.10
2022-12-28T08:36:33.375Z,5.10
2022-12-28T08:39:01.726Z,5.20
2022-12-28T08:41:29.792Z,5.20
2022-12-28T08:43:57.686Z,5.30
2022-12-28T08:46:30.068Z,5.40
2022-12-28T08:48:58.935Z,5.50
2022-12-28T08:51:33.252Z,5.80
2022-12-28T08:54:01.659Z,6.10
2022-12-28T08:56:31.592Z,6.60
2022-12-28T08:58:59.466Z,6.70
2022-12-28T09:01:29.452Z,6.00
2022-12-28T09:03:58.913Z,6.00
2022-12-28T09:06:34.608Z,6.10
2022-12-28T09:09:05.995Z,6.50
2022-12-28T09:11:35.588Z,6.20
2022-12-28T09:14:04.678Z,5.90
2022-12-28T09:16:32.471Z,5.90
2022-12-28T09:19:01.743Z,5.90
2022-12-28T09:21:32.220Z,5.70
2022-12-28T09:23:59.890Z,5.80
2022-12-28T09:26:29.787Z,5.90
2022-12-28T09:29:02.395Z,6.00
2022-12-28T09:31:31.602Z,6.00
2022-12-28T09:34:35.013Z,6.20
2022-12-28T09:44:46.941Z,6.10
2022-12-28T09:47:31.281Z,7.80
2022-12-28T09:50:25.155Z,8.00
2022-12-28T09:53:23.562Z,8.20
2022-12-28T09:56:24.562Z,9.10
2022-12-28T09:58:53.311Z,8.50
2022-12-28T10:01:22.159Z,7.90
2022-12-28T10:03:49.881Z,8.50
2022-12-28T10:37:24.499Z,11.90
2022-12-28T10:39:58.133Z,11.10
2022-12-28T10:42:32.326Z,11.00
2022-12-28T10:45:06.412Z,11.40
2022-12-28T10:47:41.373Z,11.10
2022-12-28T10:50:42.824Z,11.30
2022-12-28T10:53:45.446Z,11.10
2022-12-28T10:56:30.669Z,11.40
2022-12-28T10:59:33.524Z,12.10
2022-12-28T11:02:39.390Z,12.40
2022-12-28T11:05:06.895Z,11.90
2022-12-28T11:07:39.817Z,12.90
2022-12-28T11:10:27.872Z,12.20
2022-12-28T11:12:57.619Z,12.50
2022-12-28T11:15:28.923Z,10.80
2022-12-28T11:25:34.592Z,11.10
2022-12-28T11:44:00.982Z,8.50
2022-12-28T11:46:39.315Z,9.60
2022-12-28T11:49:25.735Z,9.00
2022-12-28T11:52:38.123Z,9.00
2022-12-28T11:55:48.695Z,9.10
2022-12-28T11:59:04.846Z,9.60
2022-12-28T12:01:42.451Z,9.60
2022-12-28T12:23:30.508Z,10.20
2022-12-28T12:26:01.001Z,9.70
2022-12-28T12:28:37.451Z,9.50
2022-12-28T13:47:47.892Z,9.60
2022-12-28T13:55:48.631Z,10.10
2022-12-28T13:58:22.344Z,10.30
2022-12-28T14:00:51.847Z,11.20
2022-12-28T14:05:50.661Z,11.30
2022-12-28T14:08:18.663Z,11.60
2022-12-28T14:10:47.499Z,12.30
2022-12-28T14:13:15.179Z,11.60
2022-12-28T14:15:43.248Z,10.60
2022-12-28T14:18:15.005Z,10.40
2022-12-28T14:21:01.249Z,10.40
2022-12-28T18:10:55.775Z,10.00
2022-12-28T18:13:23.406Z,6.80
2022-12-28T18:15:50.716Z,6.80
2022-12-28T18:18:18.579Z,6.70
2022-12-28T18:20:55.076Z,6.70
2022-12-28T18:23:22.237Z,6.70
2022-12-28T18:25:49.372Z,6.60
2022-12-28T18:28:16.744Z,6.60
2022-12-28T18:30:43.833Z,6.50
2022-12-28T18:33:10.983Z,6.50
2022-12-28T18:35:38.119Z,6.60
2022-12-28T18:38:05.251Z,6.60
2022-12-28T18:40:32.344Z,6.60
2022-12-28T18:42:59.449Z,6.70
2022-12-28T18:45:26.477Z,6.70
2022-12-28T18:47:53.815Z,6.60
2022-12-28T18:50:20.946Z,6.60
2022-12-28T18:52:48.496Z,6.50
2022-12-28T18:55:16.056Z,6.50
2022-12-28T18:57:43.520Z,6.40
2022-12-28T19:00:11.480Z,6.30
2022-12-28T19:02:39.049Z,6.20
2022-12-28T19:05:06.557Z,6.20
2022-12-28T19:07:33.683Z,6.10
2022-12-28T19:10:13.543Z,6.00
2022-12-28T19:12:42.269Z,5.90
2022-12-28T19:15:10.690Z,5.70
2022-12-28T19:17:37.865Z,5.60
2022-12-28T19:20:05.810Z,5.60
2022-12-28T19:22:33.936Z,5.60
2022-12-28T19:25:01.239Z,5.50
2022-12-28T19:27:28.377Z,5.50
2022-12-28T19:29:55.465Z,5.50
2022-12-28T19:32:22.603Z,5.40
2022-12-28T19:34:49.723Z,5.30
2022-12-28T19:37:16.948Z,5.20
2022-12-28T19:39:44.139Z,5.20
2022-12-28T19:42:11.303Z,5.30
2022-12-28T19:44:38.799Z,5.10
2022-12-28T19:47:06.019Z,5.20
2022-12-28T19:49:33.081Z,5.20
2022-12-28T19:52:02.298Z,5.20
2022-12-28T19:54:29.589Z,5.10
2022-12-28T19:56:56.734Z,5.10
2022-12-28T19:59:23.995Z,5.00
2022-12-28T20:01:51.247Z,4.90
2022-12-28T20:04:18.479Z,4.80
2022-12-28T20:06:45.900Z,4.80
2022-12-28T20:09:14.364Z,4.80
2022-12-28T20:11:41.885Z,4.90
2022-12-28T20:14:12.647Z,5.10
2022-12-28T20:16:40.906Z,5.00
2022-12-28T20:19:09.224Z,4.80
2022-12-28T20:21:37.566Z,4.80
2022-12-28T20:24:05.945Z,4.80
2022-12-28T20:26:33.271Z,4.80
2022-12-28T20:29:02.075Z,5.00
2022-12-28T20:31:30.126Z,5.00
2022-12-28T20:33:57.519Z,4.90
2022-12-28T20:36:27.101Z,4.80
2022-12-28T20:38:55.470Z,4.90
2022-12-28T20:41:43.992Z,4.70
2022-12-28T20:44:17.169Z,4.60
2022-12-28T20:46:44.994Z,4.70
2022-12-28T20:49:12.425Z,4.80
2022-12-28T20:51:42.548Z,4.80
2022-12-28T20:54:10.890Z,4.80
2022-12-28T20:56:38.759Z,4.90
2022-12-28T20:59:06.086Z,4.90
2022-12-28T21:01:36.007Z,4.80
2022-12-28T21:04:03.786Z,4.80
2022-12-28T21:06:30.966Z,4.80
2022-12-28T21:08:58.244Z,4.80
2022-12-28T21:11:25.604Z,4.70
2022-12-28T21:13:52.779Z,4.40
2022-12-28T21:16:20.052Z,4.30
2022-12-28T21:18:47.156Z,4.30
2022-12-28T21:21:16.670Z,4.20
2022-12-28T21:23:44.202Z,4.50
2022-12-28T21:26:15.073Z,4.70
2022-12-28T21:28:42.955Z,4.60
2022-12-28T21:31:10.886Z,5.00
2022-12-28T21:33:38.498Z,5.50
2022-12-28T21:36:20.735Z,6.00
2022-12-28T21:38:49.162Z,5.60
2022-12-28T21:41:41.775Z,5.50
2022-12-28T21:44:12.001Z,5.00
2022-12-28T21:46:39.164Z,5.00
2022-12-28T21:49:06.895Z,5.10
2022-12-28T21:51:38.703Z,5.50
2022-12-28T21:54:14.402Z,5.30
2022-12-28T21:56:43.090Z,5.50
2022-12-28T21:59:12.406Z,5.20
2022-12-28T22:01:59.585Z,5.00
2022-12-28T22:04:45.677Z,5.20
2022-12-28T22:07:15.294Z,4.90
2022-12-28T22:10:01.104Z,5.30
2022-12-28T22:12:37.528Z,5.10
2022-12-28T22:15:35.075Z,5.20
2022-12-28T22:18:07.868Z,5.60
2022-12-28T22:20:36.725Z,5.30
2022-12-28T22:23:04.322Z,4.80
2022-12-28T22:25:32.003Z,4.60
2022-12-28T22:27:59.683Z,4.50
2022-12-28T22:30:27.517Z,4.40
2022-12-28T22:32:54.912Z,4.40
2022-12-28T22:35:22.279Z,4.80
2022-12-28T22:37:49.978Z,4.90
2022-12-28T22:40:17.253Z,4.80
2022-12-28T22:42:48.168Z,4.80
2022-12-28T22:45:18.987Z,5.10
2022-12-28T22:47:46.443Z,5.20
2022-12-28T22:50:15.585Z,5.40
2022-12-28T22:52:43.291Z,5.90
2022-12-28T22:55:10.999Z,5.70
2022-12-28T22:57:38.231Z,5.40
2022-12-28T23:00:09.604Z,5.90
2022-12-28T23:02:36.978Z,5.80
2022-12-28T23:05:05.000Z,5.60
2022-12-28T23:07:32.261Z,5.60
2022-12-28T23:09:59.358Z,5.80
2022-12-28T23:12:26.561Z,5.70
2022-12-28T23:15:12.415Z,5.80
2022-12-28T23:17:39.573Z,5.70
2022-12-28T23:20:25.851Z,5.60
2022-12-28T23:23:11.357Z,5.00
2022-12-28T23:25:59.179Z,4.70
2022-12-28T23:28:26.796Z,4.70
2022-12-28T23:30:54.034Z,4.60
2022-12-28T23:33:21.185Z,4.40
2022-12-28T23:35:48.763Z,4.40
2022-12-28T23:38:15.852Z,4.40
2022-12-28T23:40:43.877Z,4.30
2022-12-28T23:43:11.077Z,4.30
2022-12-28T23:45:38.360Z,4.30
2022-12-28T23:48:05.841Z,4.30
2022-12-28T23:50:33.228Z,4.20
2022-12-28T23:53:00.382Z,4.30
2022-12-28T23:55:27.652Z,4.20
2022-12-28T23:57:54.787Z,4.10
